Latest Weather Observations for Gosford

IDN60901

Issued at 5:45 pm EDT Thursday 27 November 2014 (issued every 10 minutes, with the page automatically refreshed every 10 minutes)

About weather observations | Map of Sydney area stations | Latest observations for Sydney area | Other Formats
Station Details ID: 061425 Name: GOSFORD AWS Lat: -33.44 Lon: 151.36 Height: 7.0 m
Data from the previous 72 hours. | See also: Recent months at Gosford
Date/Time
EDT
Tmp

°C
App
Tmp
°C
Dew
Point
°C
Rel
Hum
%
Delta-T

°C
Wind Press
QNH
hPa
Press
MSL
hPa
Rain
since
9 am
mm
Dir
 
Spd
km/h
Gust
km/h
Spd
kts
Gust
kts
27/05:30pm 19.3 19.6 14.6 74 2.7 SSE 6 11 3 6 - - 5.4
27/05:00pm 19.1 18.7 14.1 73 2.9 SE 9 17 5 9 - - 5.4
27/04:30pm 19.2 19.3 14.5 74 2.7 SE 7 11 4 6 - - 5.4
27/04:00pm 19.1 19.3 14.6 75 2.6 SE 7 19 4 10 - - 5.4
27/03:30pm 18.9 18.8 15.0 78 2.3 SSE 9 19 5 10 - - 5.4
27/03:00pm 18.9 18.8 15.0 78 2.3 SSE 9 17 5 9 - - 5.4
27/02:30pm 18.8 18.9 15.5 81 1.9 S 9 15 5 8 - - 5.4
27/02:00pm 18.3 18.6 15.9 86 1.4 S 9 17 5 9 - - 5.4
27/01:30pm 17.6 18.0 16.3 92 0.8 SSW 9 17 5 9 - - 5.2
27/01:00pm 18.1 17.1 16.6 91 0.9 SSW 17 24 9 13 - - 2.0
27/12:30pm 20.0 19.1 14.8 72 3.0 SE 13 22 7 12 - - 0.2
27/12:00pm 20.1 19.2 14.9 72 3.0 SE 13 26 7 14 - - 0.2
27/11:30am 19.2 19.1 15.9 81 2.0 SSE 11 22 6 12 - - 0.2
27/11:00am 20.4 19.8 14.5 69 3.4 SE 11 22 6 12 - - 0.0
27/10:30am 20.4 19.6 15.0 71 3.2 SE 13 28 7 15 - - 0.0
27/10:00am 20.2 19.0 15.0 72 3.1 SE 15 30 8 16 - - 0.0
27/09:30am 20.2 18.6 15.0 72 3.1 SE 17 28 9 15 - - 0.0
27/09:00am 20.8 18.9 15.1 70 3.4 SE 19 32 10 17 - - 0.0
27/08:30am 21.4 20.1 15.9 71 3.3 SE 17 28 9 15 - - 0.0
27/08:00am 20.9 20.2 16.3 75 2.8 SE 15 22 8 12 - - 0.0
27/07:30am 20.0 19.5 16.0 78 2.4 SE 13 22 7 12 - - 0.0
27/07:00am 19.6 19.4 15.7 78 2.3 SE 11 26 6 14 - - 0.0
27/06:30am 19.5 19.6 16.5 83 1.8 SE 11 20 6 11 - - 0.0
27/06:00am 19.7 20.0 17.1 85 1.6 SE 11 20 6 11 - - 0.0
27/05:30am 20.1 21.5 17.3 84 1.7 SE 6 9 3 5 - - 0.0
27/05:00am 20.0 21.9 17.6 86 1.5 SSE 4 7 2 4 - - 0.0
27/04:30am 19.8 21.7 17.6 87 1.3 SE 4 7 2 4 - - 0.0
27/04:00am 19.6 21.6 17.9 90 1.0 SSE 4 7 2 4 - - 0.0
27/03:30am 19.1 21.7 17.4 90 1.0 CALM 0 0 0 0 - - 0.0
27/03:00am 19.7 21.9 17.5 87 1.3 ESE 2 9 1 5 - - 0.0
27/02:30am 19.7 21.7 17.8 89 1.2 SSE 4 6 2 3 - - 0.0
27/02:00am 19.3 21.9 17.4 89 1.2 CALM 0 0 0 0 - - 0.0
27/01:30am 19.5 22.1 17.5 88 1.2 CALM 0 0 0 0 - - 0.0
27/01:00am 20.1 22.6 17.3 84 1.7 CALM 0 4 0 2 - - 0.0
27/12:30am 20.3 21.8 17.5 84 1.7 E 6 11 3 6 - - 0.0
27/12:00am 20.6 22.1 17.6 83 1.8 E 6 9 3 5 - - 0.0
 
Date/Time
EDT
Tmp

°C
App
Tmp
°C
Dew
Point
°C
Rel
Hum
%
Delta-T

°C
Wind Press
QNH
hPa
Press
MSL
hPa
Rain
since
9 am
mm
Dir
 
Spd
km/h
Gust
km/h
Spd
kts
Gust
kts
26/11:30pm 20.8 22.4 17.8 83 1.9 ESE 6 11 3 6 - - 0.0
26/11:00pm 21.0 22.4 17.8 82 2.0 ESE 7 11 4 6 - - 0.0
26/10:30pm 21.1 22.7 17.9 82 2.0 ESE 6 11 3 6 - - 0.0
26/10:00pm 20.8 22.7 17.6 82 2.0 E 4 7 2 4 - - 0.0
26/09:30pm 20.9 22.3 17.3 80 2.2 E 6 11 3 6 - - 0.0
26/09:00pm 20.9 21.9 16.9 78 2.4 E 7 13 4 7 - - 0.0
26/08:30pm 21.1 22.2 16.7 76 2.7 ENE 6 9 3 5 - - 0.0
26/08:00pm 21.0 21.6 16.8 77 2.6 ENE 9 13 5 7 - - 0.0
26/07:30pm 21.2 21.0 16.6 75 2.8 ENE 13 24 7 13 - - 0.0
26/07:00pm 21.5 20.9 16.7 74 2.9 NE 15 28 8 15 - - 0.0
26/06:30pm 21.8 20.8 16.5 72 3.2 NE 17 24 9 13 - - 0.0
26/06:00pm 22.1 21.6 16.8 72 3.2 NE 15 26 8 14 - - 0.0
26/05:30pm 21.9 20.6 16.8 73 3.1 ENE 19 26 10 14 - - 0.0
26/05:00pm 22.1 21.0 16.4 70 3.5 ENE 17 30 9 16 - - 0.0
26/04:30pm 22.6 22.0 16.6 69 3.7 NE 15 22 8 12 - - 0.0
26/04:00pm 22.5 21.0 16.3 68 3.8 NE 19 28 10 15 - - 0.0
26/03:30pm 23.9 23.0 16.9 65 4.3 NE 17 32 9 17 - - 0.0
26/03:00pm 22.5 21.8 16.3 68 3.8 ENE 15 24 8 13 - - 0.0
26/02:30pm 21.6 22.7 16.6 73 3.0 ENE 6 11 3 6 - - 0.0
26/02:00pm 21.5 21.6 16.5 73 3.0 ENE 11 17 6 9 - - 0.0
26/01:30pm 21.5 22.2 16.2 72 3.2 ENE 7 15 4 8 - - 0.0
26/01:00pm 21.4 21.2 15.7 70 3.4 ENE 11 19 6 10 - - 0.0
26/12:30pm 21.5 22.1 15.8 70 3.4 ENE 7 13 4 7 - - 0.0
26/12:00pm 21.6 21.0 15.7 69 3.5 E 13 20 7 11 - - 0.0
26/11:30am 21.8 21.9 15.4 67 3.8 E 9 17 5 9 - - 0.0
26/11:00am 21.3 21.3 15.2 68 3.6 E 9 15 5 8 - - 0.0
26/10:30am 21.3 20.4 14.9 67 3.8 ENE 13 24 7 13 - - 0.0
26/10:00am 20.9 21.2 15.0 69 3.5 ENE 7 17 4 9 - - 0.0
26/09:30am 20.7 20.5 14.6 68 3.6 ENE 9 15 5 8 - - 0.0
26/09:00am 20.8 20.2 14.7 68 3.6 ENE 11 19 6 10 - - 0.0
26/08:30am 20.4 19.7 14.3 68 3.5 ENE 11 17 6 9 - - 0.0
26/08:00am 20.2 20.5 14.6 70 3.3 ENE 6 13 3 7 - - 0.0
26/07:30am 18.6 20.3 15.1 80 2.0 CALM 0 0 0 0 - - 0.0
26/07:00am 17.3 19.1 15.6 90 1.0 CALM 0 0 0 0 - - 0.0
26/06:30am 16.7 18.4 15.1 90 0.9 CALM 0 0 0 0 - - 0.0
26/06:00am 15.9 17.3 14.3 90 0.9 CALM 0 0 0 0 - - 0.0
26/05:30am 15.9 17.3 14.3 90 0.9 CALM 0 0 0 0 - - 0.0
26/05:00am 15.9 17.3 14.4 91 0.9 CALM 0 0 0 0 - - 0.0
26/04:30am 15.8 17.1 14.2 90 0.9 CALM 0 0 0 0 - - 0.0
26/04:00am 16.0 17.4 14.5 91 0.9 CALM 0 0 0 0 - - 0.0
26/03:30am 16.1 17.1 14.3 89 1.0 N 2 4 1 2 - - 0.0
26/03:00am 16.6 18.0 14.4 87 1.3 CALM 0 0 0 0 - - 0.0
26/02:30am 17.2 18.3 14.5 84 1.6 N 2 4 1 2 - - 0.0
26/02:00am 17.2 18.6 14.3 83 1.7 CALM 0 0 0 0 - - 0.0
26/01:30am 17.7 19.1 14.4 81 1.9 CALM 0 0 0 0 - - 0.0
26/01:00am 18.8 20.2 14.5 76 2.5 CALM 0 0 0 0 - - 0.0
26/12:30am 19.1 20.5 14.4 74 2.7 CALM 0 0 0 0 - - 0.0
26/12:00am 19.3 20.9 15.0 76 2.5 CALM 0 2 0 1 - - 0.0
 
Date/Time
EDT
Tmp

°C
App
Tmp
°C
Dew
Point
°C
Rel
Hum
%
Delta-T

°C
Wind Press
QNH
hPa
Press
MSL
hPa
Rain
since
9 am
mm
Dir
 
Spd
km/h
Gust
km/h
Spd
kts
Gust
kts
25/11:30pm 19.3 20.1 14.8 75 2.6 ENE 4 6 2 3 - - 0.0
25/11:00pm 19.4 20.2 14.9 75 2.6 ENE 4 6 2 3 - - 0.0
25/10:30pm 19.3 20.2 15.0 76 2.5 ENE 4 6 2 3 - - 0.0
25/10:00pm 19.2 20.0 14.7 75 2.6 ENE 4 6 2 3 - - 0.0
25/09:30pm 19.3 20.2 15.0 76 2.5 ENE 4 6 2 3 - - 0.0
25/09:00pm 19.3 20.1 14.8 75 2.6 NE 4 7 2 4 - - 0.0
25/08:30pm 19.4 20.2 14.9 75 2.6 NE 4 6 2 3 - - 0.0
25/08:00pm 19.5 19.9 14.7 74 2.8 ENE 6 9 3 5 - - 0.0
25/07:30pm 19.8 20.0 14.6 72 3.0 E 7 15 4 8 - - 0.0
25/07:00pm 20.1 19.1 14.5 70 3.3 E 13 20 7 11 - - 0.0
25/06:30pm 20.4 20.2 14.7 70 3.3 E 9 17 5 9 - - 0.0
25/06:00pm 20.1 19.0 14.2 69 3.4 ENE 13 20 7 11 - - 0.0
25/05:30pm 20.5 19.4 14.4 68 3.6 E 13 19 7 10 - - 0.0
25/05:00pm 20.5 19.5 14.6 69 3.4 E 13 19 7 10 - - 0.0
25/04:30pm 20.6 19.5 14.3 67 3.7 SE 13 22 7 12 - - 0.0
25/04:00pm 21.2 20.7 14.8 67 3.8 ESE 11 19 6 10 - - 0.0
25/03:30pm 21.3 20.3 14.7 66 3.9 SE 13 22 7 12 - - 0.0
25/03:00pm 21.7 20.9 15.1 66 3.9 SSE 13 19 7 10 - - 0.0
25/02:30pm 21.0 20.2 15.1 69 3.5 SE 13 22 7 12 - - 0.0
25/02:00pm 21.3 20.2 15.2 68 3.6 SSE 15 22 8 12 - - 0.0
25/01:30pm 21.7 21.0 15.5 68 3.7 SSE 13 24 7 13 - - 0.0
25/01:00pm 21.6 20.3 15.7 69 3.5 SSE 17 30 9 16 - - 0.0
25/12:30pm 21.9 20.4 16.2 70 3.4 S 19 30 10 16 - - 0.0
25/12:00pm 22.2 21.6 16.7 71 3.4 S 15 28 8 15 - - 0.0
25/11:30am 22.5 20.4 16.1 67 3.9 S 22 35 12 19 - - 0.0
25/11:00am 25.5 22.8 13.0 46 7.3 SW 19 30 10 16 - - 0.0
25/10:30am 24.8 22.9 15.7 57 5.5 SW 20 32 11 17 - - 0.0
25/10:00am 24.6 26.1 18.8 70 3.7 W 9 17 5 9 - - 0.0
25/09:30am 24.6 25.1 18.3 68 4.0 W 13 19 7 10 - - 0.0
25/09:00am 25.0 26.0 18.7 68 4.0 WNW 11 19 6 10 - - 6.8
25/08:30am 23.9 25.1 18.3 71 3.5 NNW 9 15 5 8 - - 6.8
25/08:00am 23.9 24.8 18.3 71 3.5 NW 11 19 6 10 - - 6.8
25/07:30am 23.1 24.9 18.8 77 2.7 WNW 7 15 4 8 - - 6.8
25/07:00am 23.0 24.3 18.5 76 2.8 W 9 19 5 10 - - 6.8
25/06:30am 23.2 23.3 18.3 74 3.1 N 15 26 8 14 - - 6.8
25/06:00am 22.8 24.8 18.8 78 2.5 N 6 17 3 9 - - 6.8
25/05:30am 23.2 23.2 18.9 77 2.7 NNW 17 28 9 15 - - 6.8
25/05:00am 23.4 24.5 18.9 76 2.9 NW 11 19 6 10 - - 6.8
25/04:30am 23.4 23.8 18.9 76 2.9 NNW 15 24 8 13 - - 6.6
25/04:00am 23.0 24.3 19.2 79 2.4 NNW 11 20 6 11 - - 6.6
25/03:30am 23.6 24.0 19.1 76 2.9 NNW 15 24 8 13 - - 6.4
25/03:00am 23.6 24.8 19.1 76 2.9 NNW 11 22 6 12 - - 6.4
25/02:30am 23.9 25.2 19.2 75 3.0 WNW 11 17 6 9 - - 6.2
25/02:00am 23.9 25.7 19.6 77 2.8 NW 9 20 5 11 - - 6.2
25/01:30am 23.8 26.0 19.7 78 2.6 NW 7 15 4 8 - - 6.2
25/01:00am 24.1 26.1 20.0 78 2.6 NNW 9 15 5 8 - - 6.2
25/12:30am 24.6 25.9 20.9 80 2.4 NNW 15 26 8 14 - - 6.2
25/12:00am 23.2 27.5 22.0 93 0.8 ENE 2 4 1 2 - - 6.2
 
Date/Time
EDT
Tmp

°C
App
Tmp
°C
Dew
Point
°C
Rel
Hum
%
Delta-T

°C
Wind Press
QNH
hPa
Press
MSL
hPa
Rain
since
9 am
mm
Dir
 
Spd
km/h
Gust
km/h
Spd
kts
Gust
kts
24/11:30pm 23.7 27.4 22.3 92 0.9 S 6 11 3 6 - - 6.0
24/11:00pm 23.4 25.9 21.8 91 1.1 N 11 22 6 12 - - 6.0
24/10:30pm 22.6 26.4 21.6 94 0.7 N 4 13 2 7 - - 5.6
24/10:00pm 22.4 26.3 21.2 93 0.8 WSW 2 4 1 2 - - 5.6
24/09:30pm 22.3 25.9 21.3 94 0.7 S 4 6 2 3 - - 5.6
24/09:00pm 22.1 25.6 21.1 94 0.7 E 4 7 2 4 - - 5.6
24/08:30pm 22.2 25.6 21.0 93 0.8 N 4 9 2 5 - - 5.6
24/08:00pm 22.3 25.7 20.9 92 0.9 E 4 7 2 4 - - 5.6
24/07:30pm 22.4 25.6 21.2 93 0.8 WNW 6 9 3 5 - - 5.6
24/07:00pm 22.1 25.4 20.7 92 0.9 ENE 4 7 2 4 - - 5.6
24/06:30pm 21.9 23.3 20.4 91 1.0 ENE 13 22 7 12 - - 5.4
24/06:00pm 22.6 25.4 20.5 88 1.4 W 6 15 3 8 - - 1.4

Latest Capital City Observations: Canberra | Sydney | Melbourne | Brisbane | Adelaide | Perth | Hobart | Darwin

Other Formats:

Comma delimited format used in spreadsheet applications
http://www.bom.gov.au/fwo/IDN60901/IDN60901.94782.axf

JavaScript Object Notation format (JSON) in row-major order
http://www.bom.gov.au/fwo/IDN60901/IDN60901.94782.json